createdAt,value
2023-03-30T00:03:31.201Z,87.70
2023-03-30T00:08:34.945Z,87.50
2023-03-30T00:13:37.902Z,87.70
2023-03-30T00:18:41.202Z,87.60
2023-03-30T00:23:44.798Z,87.80
2023-03-30T00:28:46.941Z,87.80
2023-03-30T00:33:49.080Z,87.70
2023-03-30T00:38:52.641Z,87.70
2023-03-30T00:44:00.030Z,87.70
2023-03-30T00:49:05.346Z,87.80
2023-03-30T00:54:13.713Z,87.80
2023-03-30T00:59:15.897Z,88.10
2023-03-30T01:04:18.249Z,88.10
2023-03-30T01:09:21.821Z,88.10
2023-03-30T01:14:23.992Z,87.90
2023-03-30T01:19:52.253Z,88.50
2023-03-30T01:25:22.527Z,88.70
2023-03-30T01:30:40.271Z,88.50
2023-03-30T01:36:27.377Z,88.40
2023-03-30T01:41:36.818Z,88.80
2023-03-30T01:46:44.990Z,88.20
2023-03-30T01:51:53.749Z,88.10
2023-03-30T01:57:02.964Z,88.00
2023-03-30T02:02:07.364Z,88.00
2023-03-30T02:07:14.479Z,88.10
2023-03-30T02:12:19.728Z,88.00
2023-03-30T02:17:23.878Z,88.10
2023-03-30T02:22:27.365Z,88.00
2023-03-30T02:27:32.523Z,87.80
2023-03-30T02:32:44.404Z,87.70
2023-03-30T02:38:16.517Z,88.10
2023-03-30T02:43:29.835Z,88.10
2023-03-30T02:48:42.549Z,87.70
2023-03-30T02:53:54.246Z,87.80
2023-03-30T02:59:04.222Z,87.80
2023-03-30T03:04:08.692Z,87.90
2023-03-30T03:09:11.245Z,87.70
2023-03-30T03:14:14.813Z,87.80
2023-03-30T03:19:16.875Z,87.90
2023-03-30T03:24:19.014Z,87.90
2023-03-30T03:29:22.611Z,87.80
2023-03-30T03:34:24.756Z,87.60
2023-03-30T03:39:26.891Z,87.50
2023-03-30T03:44:30.632Z,87.50
2023-03-30T03:49:32.728Z,87.50
2023-03-30T03:54:34.820Z,87.30
2023-03-30T03:59:38.409Z,87.20
2023-03-30T04:04:40.548Z,87.10
2023-03-30T04:09:42.716Z,86.80
2023-03-30T04:14:46.217Z,86.70
2023-03-30T04:19:48.295Z,86.50
2023-03-30T04:24:50.611Z,86.50
2023-03-30T04:29:54.164Z,86.50
2023-03-30T04:34:56.228Z,86.70
2023-03-30T04:39:59.115Z,86.70
2023-03-30T04:45:03.246Z,86.60
2023-03-30T04:50:06.160Z,86.60
2023-03-30T04:55:09.086Z,86.40
2023-03-30T05:00:14.078Z,86.30
2023-03-30T05:05:16.328Z,86.30
2023-03-30T05:10:18.447Z,86.20
2023-03-30T05:15:22.134Z,86.10
2023-03-30T05:20:24.305Z,86.10
2023-03-30T05:25:26.444Z,85.80
2023-03-30T05:30:30.040Z,85.70
2023-03-30T05:35:32.257Z,85.60
2023-03-30T05:40:34.358Z,85.50
2023-03-30T05:45:38.538Z,85.40
2023-03-30T05:50:40.717Z,85.50
2023-03-30T05:55:44.352Z,85.30
2023-03-30T06:00:47.884Z,85.30
2023-03-30T06:05:52.553Z,85.40
2023-03-30T06:10:55.992Z,85.40
2023-03-30T06:16:02.925Z,85.30
2023-03-30T06:21:06.525Z,85.40
2023-03-30T06:26:09.195Z,85.40
2023-03-30T06:31:13.191Z,85.40
2023-03-30T06:36:16.881Z,85.50
2023-03-30T06:41:19.088Z,85.30
2023-03-30T06:46:22.837Z,85.20
2023-03-30T06:51:25.371Z,85.10
2023-03-30T06:56:27.526Z,85.20
2023-03-30T07:01:31.547Z,85.50
2023-03-30T07:06:33.710Z,85.90
2023-03-30T07:11:35.931Z,86.10
2023-03-30T07:16:39.548Z,86.00
2023-03-30T07:21:41.683Z,85.70
2023-03-30T07:26:43.882Z,85.90
2023-03-30T07:31:47.519Z,85.90
2023-03-30T07:36:49.824Z,85.90
2023-03-30T07:41:52.088Z,85.80
2023-03-30T07:46:55.868Z,85.70
2023-03-30T07:51:58.072Z,84.80
2023-03-30T07:57:00.483Z,84.20
2023-03-30T08:02:04.231Z,84.90
2023-03-30T08:07:06.458Z,85.00
2023-03-30T08:12:08.573Z,85.20
2023-03-30T08:17:12.163Z,84.90
2023-03-30T08:22:14.403Z,83.70
2023-03-30T08:27:16.619Z,79.70
2023-03-30T08:32:20.338Z,76.70
2023-03-30T08:37:22.455Z,76.80
2023-03-30T08:42:41.904Z,77.30
2023-03-30T08:47:49.720Z,77.50
2023-03-30T08:52:53.058Z,78.50
2023-03-30T08:58:02.890Z,79.30
2023-03-30T09:03:17.721Z,80.20
2023-03-30T09:08:22.572Z,82.10
2023-03-30T09:13:28.244Z,82.10
2023-03-30T09:18:33.561Z,83.50
2023-03-30T09:23:35.749Z,83.30
2023-03-30T09:28:46.648Z,83.90
2023-03-30T09:33:57.877Z,84.50
2023-03-30T09:39:00.364Z,85.20
2023-03-30T09:44:02.790Z,86.20
2023-03-30T09:49:16.863Z,86.50
2023-03-30T09:54:19.921Z,87.70
2023-03-30T09:59:30.434Z,86.40
2023-03-30T10:04:34.480Z,85.10
2023-03-30T10:09:44.572Z,84.30
2023-03-30T10:14:46.782Z,84.10
2023-03-30T10:24:56.497Z,83.00
2023-03-30T10:30:08.050Z,83.80
2023-03-30T10:35:11.859Z,83.80
2023-03-30T10:40:17.774Z,83.30
2023-03-30T10:45:26.359Z,83.60
2023-03-30T10:50:39.287Z,82.50
2023-03-30T10:55:49.017Z,80.90
2023-03-30T11:01:04.260Z,78.20
2023-03-30T11:06:15.836Z,75.80
2023-03-30T11:11:22.614Z,75.10
2023-03-30T11:16:40.011Z,74.10
2023-03-30T11:21:49.369Z,74.60
2023-03-30T11:26:57.327Z,75.00
2023-03-30T11:32:14.873Z,76.10
2023-03-30T11:37:26.013Z,76.10
2023-03-30T11:42:31.483Z,75.10
2023-03-30T11:47:55.418Z,73.60
2023-03-30T11:53:11.485Z,73.30
2023-03-30T11:58:27.091Z,73.10
2023-03-30T12:03:40.316Z,73.00
2023-03-30T12:09:00.917Z,73.20
2023-03-30T12:14:05.200Z,73.80
2023-03-30T12:19:13.579Z,73.90
2023-03-30T12:24:23.952Z,73.80
2023-03-30T12:30:01.872Z,73.70
2023-03-30T12:35:38.974Z,74.20
2023-03-30T12:40:46.137Z,73.70
2023-03-30T12:45:50.721Z,73.90
2023-03-30T12:51:02.254Z,74.40
2023-03-30T12:56:11.037Z,74.60
2023-03-30T13:01:32.468Z,74.80
2023-03-30T13:06:38.988Z,75.20
2023-03-30T13:12:05.862Z,75.60
2023-03-30T13:17:15.808Z,75.50
2023-03-30T13:22:29.041Z,74.00
2023-03-30T13:27:37.526Z,73.60
2023-03-30T13:32:55.655Z,73.60
2023-03-30T13:38:23.110Z,72.70
2023-03-30T13:43:39.881Z,71.80
2023-03-30T13:48:57.698Z,71.80
2023-03-30T13:54:03.427Z,71.80
2023-03-30T13:59:13.546Z,72.20
2023-03-30T14:04:16.057Z,72.60
2023-03-30T14:09:22.735Z,73.30
2023-03-30T14:14:33.549Z,73.60
2023-03-30T14:19:38.499Z,74.40
2023-03-30T14:24:56.923Z,72.30
2023-03-30T14:30:00.778Z,71.60
2023-03-30T14:35:06.290Z,71.80
2023-03-30T14:40:15.146Z,71.10
2023-03-30T14:45:19.528Z,70.40
2023-03-30T14:50:23.036Z,70.20
2023-03-30T14:55:26.539Z,69.70
2023-03-30T15:00:30.407Z,70.00
2023-03-30T15:05:36.402Z,70.00
2023-03-30T15:10:45.805Z,70.00
2023-03-30T15:15:49.645Z,70.20
2023-03-30T15:20:52.284Z,69.90
2023-03-30T15:25:59.314Z,70.30
2023-03-30T15:31:03.107Z,70.60
2023-03-30T15:36:10.513Z,71.10
2023-03-30T15:41:13.051Z,71.20
2023-03-30T15:46:16.794Z,71.30
2023-03-30T15:51:25.326Z,70.70
2023-03-30T15:56:32.203Z,70.60
2023-03-30T16:01:51.672Z,70.60
2023-03-30T16:06:54.061Z,70.30
2023-03-30T16:11:58.569Z,70.50
2023-03-30T16:17:02.044Z,70.80
2023-03-30T16:22:04.240Z,70.80
2023-03-30T16:27:06.811Z,71.20
2023-03-30T16:32:10.713Z,71.70
2023-03-30T16:37:12.996Z,72.20
2023-03-30T16:42:15.042Z,72.40
2023-03-30T16:47:18.652Z,72.40
2023-03-30T16:52:21.028Z,72.70
2023-03-30T16:57:23.155Z,72.80
2023-03-30T17:02:26.695Z,73.00
2023-03-30T17:07:28.826Z,73.20
2023-03-30T17:12:30.978Z,73.50
2023-03-30T17:17:34.506Z,73.80
2023-03-30T17:22:36.774Z,74.20
2023-03-30T17:27:43.579Z,74.40
2023-03-30T17:32:50.070Z,74.60
2023-03-30T17:37:58.304Z,74.80
2023-03-30T17:43:01.264Z,75.00
2023-03-30T17:48:08.616Z,75.40
2023-03-30T17:53:13.701Z,75.80
2023-03-30T17:58:19.411Z,76.00
2023-03-30T18:03:28.926Z,76.20
2023-03-30T18:08:33.845Z,76.50
2023-03-30T18:13:39.047Z,77.00
2023-03-30T18:18:46.509Z,77.20
2023-03-30T18:23:48.802Z,77.90
2023-03-30T18:28:51.046Z,79.00
2023-03-30T18:33:54.517Z,78.50
2023-03-30T18:38:56.652Z,79.00
2023-03-30T18:43:58.769Z,79.30
2023-03-30T18:49:02.399Z,79.50
2023-03-30T18:54:06.628Z,79.80
2023-03-30T18:59:10.141Z,80.20
2023-03-30T19:04:15.393Z,80.40
2023-03-30T19:09:17.548Z,80.70
2023-03-30T19:14:19.642Z,80.70
2023-03-30T19:19:23.238Z,80.90
2023-03-30T19:24:25.368Z,81.00
2023-03-30T19:29:27.521Z,80.90
2023-03-30T19:34:31.151Z,81.20
2023-03-30T19:39:33.264Z,81.40
2023-03-30T19:44:35.430Z,81.60
2023-03-30T19:49:38.938Z,81.70
2023-03-30T19:54:41.580Z,82.00
2023-03-30T19:59:43.766Z,81.90
2023-03-30T20:04:47.652Z,82.90
2023-03-30T20:09:49.921Z,82.30
2023-03-30T20:14:52.256Z,82.20
2023-03-30T20:19:55.918Z,82.10
2023-03-30T20:24:58.166Z,82.20
2023-03-30T20:30:00.452Z,82.20
2023-03-30T20:35:04.389Z,82.20
2023-03-30T20:40:08.238Z,82.30
2023-03-30T20:45:11.604Z,82.20
2023-03-30T20:50:15.245Z,82.30
2023-03-30T20:55:17.630Z,82.30
2023-03-30T21:00:20.819Z,82.20
2023-03-30T21:05:24.508Z,82.40
2023-03-30T21:10:26.664Z,82.40
2023-03-30T21:15:28.777Z,82.40
2023-03-30T21:20:32.320Z,82.40
2023-03-30T21:25:34.462Z,82.40
2023-03-30T21:30:36.740Z,82.30
2023-03-30T21:35:40.434Z,82.40
2023-03-30T21:40:42.836Z,82.50
2023-03-30T21:45:50.841Z,82.50
2023-03-30T21:51:00.443Z,82.50
2023-03-30T21:56:04.039Z,82.60
2023-03-30T22:01:12.236Z,82.60
2023-03-30T22:06:17.737Z,82.90
2023-03-30T22:11:21.861Z,83.00
2023-03-30T22:16:25.472Z,83.10
2023-03-30T22:21:29.955Z,83.30
2023-03-30T22:26:32.600Z,83.40
2023-03-30T22:31:34.768Z,84.30
2023-03-30T22:36:39.231Z,83.50
2023-03-30T22:41:41.393Z,83.50
2023-03-30T22:46:43.588Z,83.50
2023-03-30T22:51:47.226Z,83.50
2023-03-30T22:56:49.409Z,83.50
2023-03-30T23:01:52.254Z,83.50
2023-03-30T23:06:56.659Z,83.90
2023-03-30T23:11:59.467Z,83.80
2023-03-30T23:17:02.177Z,83.70
2023-03-30T23:22:05.920Z,83.60
2023-03-30T23:27:07.989Z,83.60
2023-03-30T23:32:10.356Z,83.70
2023-03-30T23:37:13.932Z,83.50
2023-03-30T23:42:16.172Z,83.60
2023-03-30T23:47:18.397Z,83.40
2023-03-30T23:52:22.111Z,83.60
2023-03-30T23:57:24.321Z,83.80
